Airfield :
LOGIN :

Register | Disclaimer

   EN    FR    IT 

 










Legend :    VFR   Marginal VFR   IFR   Intensive IFR   Very Intensive IFR
Visi :
Ceiling :
>= 8 km
>= 3000ft
5 to 8 km
1000 to 3000 ft
1500m to 5 km
500 to 1000 ft
800 to 1500m
200 to 500 ft
< 800m
< 200 ft
Symbols :   Thunderstorms  Fog  Heavy snow  Heavy precipitations  Wind > 20 kt
SIGMETs :     Misc.  Thunderstorms  Icing  Turbulence  Mountain Waves  Volcanic Ashes






- Airport Elevation : 44 ft
- IATA code : SOU


EGHI - Southampton

CURRENT METAR :
  • 231050Z 24007KT 210V270 9999 SCT011 14/13 Q1008

EXPIRED METARs :
  • 230950Z 23009KT 190V260 9999 5000E RA SCT015 SCT035 14/12 Q1007
  • 230920Z 21011KT 180V240 6000 RA FEW011 BKN018 14/13 Q1007
  • 230850Z 19009KT 150V220 9999 VCSH FEW011 SCT020 14/13 Q1007
  • 230820Z 19009KT 9999 VCSH FEW015 SCT022 15/13 Q1008

TAF AMD TAF EGHI
Valid from the 23 at 09:00 until the 23 at 18:00 UTC


230946Z 2309/2318 24008KT 9999 FEW015 SCT025
TEMPO 2309/2317 6000 RA BKN012
PROB40
TEMPO 2309/2311 3000 +SHRA BKN009
ATIS : +44 23 8062 7103



MET'MAP, your aeronautical weather chart ! - Copyright ORBIFLY December 2007 - Disclaimer

ORBIFLY MET'MAP TEAM :

Programming & Development : Alexandra Zaïnal
Concept & original design : Baudouin d'Aumeries
Assistance for programming : Marc-Olivier Méhu
Technical & hardware support : Manuel Goepfert

Contact : metmap@orbifly.com




SOURCES & CREDITS :

   NOAA